createdAt,value
2018-10-18T03:01:04.190Z,10.60
2018-10-18T03:02:04.236Z,15.60
2018-10-18T03:03:04.459Z,13.90
2018-10-18T03:04:04.529Z,14.80
2018-10-18T03:05:04.690Z,14.90
2018-10-18T03:06:05.053Z,15.00
2018-10-18T03:07:05.060Z,15.00
2018-10-18T03:08:05.231Z,15.00
2018-10-18T03:09:05.441Z,14.30
2018-10-18T03:10:05.591Z,14.40
2018-10-18T03:11:05.727Z,14.90
2018-10-18T03:12:06.004Z,13.50
2018-10-18T03:13:06.038Z,13.90
2018-10-18T03:14:06.255Z,13.80
2018-10-18T03:15:06.549Z,14.20
2018-10-18T03:16:06.641Z,13.80
2018-10-18T03:17:06.762Z,13.10
2018-10-18T03:18:07.027Z,13.60
2018-10-18T03:19:07.114Z,12.40
2018-10-18T03:20:07.205Z,12.80
2018-10-18T03:21:07.476Z,12.70
2018-10-18T03:22:07.668Z,12.20
2018-10-18T03:23:07.818Z,12.40
2018-10-18T03:24:07.976Z,12.40
2018-10-18T03:25:08.116Z,12.70
2018-10-18T03:26:08.307Z,12.40
2018-10-18T03:27:08.398Z,13.20
2018-10-18T03:28:08.543Z,13.70
2018-10-18T03:29:08.764Z,13.00
2018-10-18T03:30:08.987Z,13.30
2018-10-18T03:31:09.096Z,12.60
2018-10-18T03:32:09.282Z,13.40
2018-10-18T03:33:09.513Z,14.40
2018-10-18T03:34:09.669Z,13.00
2018-10-18T03:35:09.807Z,13.30
2018-10-18T03:36:09.992Z,13.60
2018-10-18T03:37:10.162Z,13.20
2018-10-18T03:38:10.231Z,12.90
2018-10-18T03:39:11.185Z,13.30
2018-10-18T03:40:10.671Z,13.60
2018-10-18T03:41:10.758Z,13.20
2018-10-18T03:42:11.025Z,13.40
2018-10-18T03:43:11.169Z,12.70
2018-10-18T03:44:11.243Z,12.70
2018-10-18T03:45:11.455Z,13.00
2018-10-18T03:46:11.544Z,13.00
2018-10-18T03:47:11.768Z,12.90
2018-10-18T03:48:11.938Z,12.70
2018-10-18T03:49:12.142Z,12.80
2018-10-18T03:50:12.280Z,12.10
2018-10-18T03:51:12.509Z,12.70
2018-10-18T03:52:12.591Z,14.10
2018-10-18T03:53:12.825Z,12.60
2018-10-18T03:54:13.044Z,13.10
2018-10-18T03:55:13.062Z,12.50
2018-10-18T03:56:14.182Z,12.70
2018-10-18T03:57:13.528Z,13.40
2018-10-18T03:58:13.685Z,12.50
2018-10-18T03:59:13.758Z,12.30
2018-10-18T04:00:14.070Z,12.20
2018-10-18T04:01:14.176Z,11.70
2018-10-18T04:02:14.331Z,12.60
2018-10-18T04:03:14.444Z,12.70
2018-10-18T04:04:15.088Z,13.10
2018-10-18T04:05:14.764Z,12.90
2018-10-18T04:06:14.990Z,12.80
2018-10-18T04:07:15.266Z,12.70
2018-10-18T04:08:15.276Z,13.20
2018-10-18T04:09:16.095Z,13.30
2018-10-18T04:10:15.681Z,13.40
2018-10-18T04:11:15.840Z,13.60
2018-10-18T04:12:16.227Z,13.60
2018-10-18T04:13:16.156Z,13.10
2018-10-18T04:14:16.262Z,13.60
2018-10-18T04:15:16.447Z,14.40
2018-10-18T04:16:16.724Z,13.90
2018-10-18T04:17:16.855Z,13.90
2018-10-18T04:18:17.116Z,14.20
2018-10-18T04:19:17.156Z,14.80
2018-10-18T04:20:17.452Z,14.00
2018-10-18T04:21:18.047Z,14.00
2018-10-18T04:22:18.697Z,15.00
2018-10-18T04:23:18.041Z,14.90
2018-10-18T04:24:18.220Z,14.10
2018-10-18T04:25:18.322Z,14.30
2018-10-18T04:26:18.451Z,13.30
2018-10-18T04:27:18.607Z,13.30
2018-10-18T04:28:18.842Z,13.20
2018-10-18T04:29:19.022Z,13.40
2018-10-18T04:30:19.620Z,13.40
2018-10-18T04:31:19.340Z,14.20
2018-10-18T04:32:19.406Z,14.70
2018-10-18T04:33:19.807Z,14.10
2018-10-18T04:34:19.841Z,14.40
2018-10-18T04:35:20.059Z,14.40
2018-10-18T04:36:20.338Z,14.70
2018-10-18T04:37:21.284Z,14.70
2018-10-18T04:38:20.559Z,14.30
2018-10-18T04:39:20.822Z,14.70
2018-10-18T04:40:20.910Z,15.30
2018-10-18T04:41:21.007Z,15.20
2018-10-18T04:42:21.242Z,14.60
2018-10-18T04:43:21.474Z,16.00
2018-10-18T04:44:22.083Z,15.40
2018-10-18T04:45:21.776Z,15.80
2018-10-18T04:46:21.856Z,15.10
2018-10-18T04:47:22.196Z,15.40
2018-10-18T04:48:22.437Z,15.40
2018-10-18T04:49:22.435Z,15.60
2018-10-18T04:50:22.576Z,15.00
2018-10-18T04:51:22.823Z,14.70
2018-10-18T04:52:22.949Z,15.30
2018-10-18T04:53:23.099Z,15.30
2018-10-18T04:54:23.294Z,15.10
2018-10-18T04:55:23.408Z,15.00
2018-10-18T04:56:23.436Z,15.00
2018-10-18T04:57:23.725Z,14.90
2018-10-18T04:58:23.933Z,15.60
2018-10-18T04:59:24.021Z,15.30
2018-10-18T05:00:24.195Z,16.60
2018-10-18T05:01:24.667Z,24.50
2018-10-18T05:02:24.556Z,15.10
2018-10-18T05:03:24.720Z,15.00
2018-10-18T05:04:24.796Z,14.40
2018-10-18T05:05:25.258Z,14.30
2018-10-18T05:06:25.597Z,14.20
2018-10-18T05:07:25.525Z,14.10
2018-10-18T05:08:25.610Z,14.60
2018-10-18T05:09:25.801Z,13.70
2018-10-18T05:10:26.048Z,14.00
2018-10-18T05:11:26.147Z,13.90
2018-10-18T05:12:26.483Z,14.50
2018-10-18T05:13:26.675Z,13.80
2018-10-18T05:14:26.626Z,14.50
2018-10-18T05:15:26.818Z,14.30
2018-10-18T05:16:26.901Z,14.70
2018-10-18T05:17:27.034Z,14.90
2018-10-18T05:18:27.243Z,14.80
2018-10-18T05:19:27.443Z,14.70
2018-10-18T05:20:27.659Z,15.80
2018-10-18T05:21:27.909Z,15.30
2018-10-18T05:22:28.078Z,15.00
2018-10-18T05:23:28.165Z,14.30
2018-10-18T05:24:29.250Z,14.20
2018-10-18T05:25:28.399Z,13.90
2018-10-18T05:26:28.486Z,14.70
2018-10-18T05:27:28.852Z,13.70
2018-10-18T05:28:28.937Z,13.70
2018-10-18T05:29:29.127Z,14.70
2018-10-18T05:30:29.297Z,14.20
2018-10-18T05:31:29.469Z,14.10
2018-10-18T05:32:29.514Z,14.80
2018-10-18T05:33:29.702Z,14.40
2018-10-18T05:34:29.902Z,15.00
2018-10-18T05:35:30.169Z,14.70
2018-10-18T05:36:30.276Z,14.70
2018-10-18T05:37:30.535Z,15.00
2018-10-18T05:38:30.662Z,14.60
2018-10-18T05:39:30.723Z,14.10
2018-10-18T05:40:30.877Z,14.40
2018-10-18T05:41:31.080Z,14.70
2018-10-18T05:42:31.329Z,13.80
2018-10-18T05:43:31.508Z,14.40
2018-10-18T05:44:31.693Z,14.40
2018-10-18T05:45:31.813Z,14.70
2018-10-18T05:46:31.999Z,14.80
2018-10-18T05:47:32.209Z,14.40
2018-10-18T05:48:32.401Z,14.70
2018-10-18T05:49:32.579Z,14.70
2018-10-18T05:50:32.682Z,14.30
2018-10-18T05:51:32.946Z,15.10
2018-10-18T05:52:33.073Z,14.30
2018-10-18T05:53:33.271Z,15.00
2018-10-18T05:54:33.350Z,15.00
2018-10-18T05:55:33.584Z,16.50
2018-10-18T05:56:33.671Z,15.70
2018-10-18T05:57:34.012Z,15.30
2018-10-18T05:58:34.201Z,16.80
2018-10-18T05:59:34.175Z,16.50
2018-10-18T06:00:34.415Z,15.10
2018-10-18T06:01:34.599Z,15.10
2018-10-18T06:02:34.834Z,15.10
2018-10-18T06:03:34.926Z,15.30
2018-10-18T06:04:35.384Z,15.60
2018-10-18T06:05:36.517Z,15.10
2018-10-18T06:06:35.578Z,15.00
2018-10-18T06:07:36.312Z,15.10
2018-10-18T06:08:38.745Z,14.80
2018-10-18T06:09:39.361Z,15.00
2018-10-18T06:10:37.271Z,14.50
2018-10-18T06:11:36.335Z,14.90
2018-10-18T06:12:36.608Z,15.30
2018-10-18T06:13:38.017Z,14.50
2018-10-18T06:14:37.017Z,15.50
2018-10-18T06:15:38.269Z,15.60
2018-10-18T06:16:37.559Z,15.50
2018-10-18T06:17:43.243Z,15.30
2018-10-18T06:18:41.317Z,14.70
2018-10-18T06:19:39.095Z,16.20
2018-10-18T06:20:37.933Z,15.90
2018-10-18T06:21:38.480Z,15.80
2018-10-18T06:22:40.857Z,15.80
2018-10-18T06:23:39.364Z,17.10
2018-10-18T06:24:42.063Z,16.30
2018-10-18T06:25:40.489Z,15.70
2018-10-18T06:26:41.471Z,15.50
2018-10-18T06:27:43.044Z,15.30
2018-10-18T06:28:39.384Z,16.10
2018-10-18T06:29:39.642Z,15.60
2018-10-18T06:30:41.127Z,15.20
2018-10-18T06:31:39.775Z,14.90
2018-10-18T06:32:40.175Z,15.20
2018-10-18T06:33:40.659Z,16.00
2018-10-18T06:34:44.342Z,16.00
2018-10-18T06:35:43.486Z,18.10
2018-10-18T06:36:41.037Z,14.70
2018-10-18T06:37:40.919Z,13.70
2018-10-18T06:38:43.531Z,14.80
2018-10-18T06:39:41.194Z,16.20
2018-10-18T06:40:41.521Z,19.90
2018-10-18T06:41:41.914Z,23.20
2018-10-18T06:42:41.964Z,22.10
2018-10-18T06:43:42.736Z,17.90
2018-10-18T06:44:41.844Z,14.70
2018-10-18T06:46:42.358Z,14.70
2018-10-18T06:47:46.265Z,20.80
2018-10-18T06:48:43.463Z,14.50
2018-10-18T06:49:43.494Z,14.30
2018-10-18T06:50:43.158Z,13.70
2018-10-18T06:51:43.098Z,14.70
2018-10-18T06:52:43.408Z,14.50
2018-10-18T06:53:44.201Z,14.40
2018-10-18T06:54:44.612Z,14.30
2018-10-18T06:55:44.863Z,13.80
2018-10-18T06:56:44.170Z,13.00
2018-10-18T06:57:44.286Z,14.10
2018-10-18T06:58:44.258Z,14.40
2018-10-18T06:59:45.305Z,20.90
2018-10-18T07:00:45.598Z,19.30
2018-10-18T07:01:44.861Z,23.50
2018-10-18T07:02:45.051Z,15.90
2018-10-18T07:03:45.206Z,12.80
2018-10-18T07:04:45.293Z,13.60
2018-10-18T07:05:45.498Z,14.00
2018-10-18T07:06:45.577Z,12.40
2018-10-18T07:07:46.082Z,12.20
2018-10-18T07:08:46.052Z,12.10
2018-10-18T07:09:46.661Z,11.50
2018-10-18T07:10:46.437Z,10.70
2018-10-18T07:11:46.544Z,10.00
2018-10-18T07:12:48.732Z,10.50
2018-10-18T07:13:46.990Z,10.60
2018-10-18T07:15:21.076Z,9.80
2018-10-18T07:15:47.389Z,10.50
2018-10-18T07:16:47.661Z,9.80
2018-10-18T07:17:47.935Z,9.80
2018-10-18T07:18:48.907Z,10.80
2018-10-18T07:20:49.257Z,10.30
2018-10-18T07:21:49.449Z,9.70
2018-10-18T07:22:50.134Z,10.40
2018-10-18T07:23:48.721Z,10.80
2018-10-18T07:24:49.282Z,10.30
2018-10-18T07:25:49.323Z,10.50
2018-10-18T07:26:49.680Z,12.10
2018-10-18T07:27:49.850Z,11.60
2018-10-18T07:29:50.608Z,11.00
2018-10-18T07:30:52.486Z,10.30
2018-10-18T07:31:51.536Z,11.50
2018-10-18T07:32:52.109Z,10.70
2018-10-18T07:33:52.898Z,17.50
2018-10-18T07:34:51.765Z,16.40
2018-10-18T07:35:50.734Z,14.20
2018-10-18T07:36:52.362Z,12.90
2018-10-18T07:37:51.298Z,13.50
2018-10-18T07:38:52.544Z,14.00
2018-10-18T07:39:52.406Z,12.40
2018-10-18T07:40:51.810Z,13.60
2018-10-18T07:41:52.147Z,11.80
2018-10-18T07:42:52.523Z,10.30
2018-10-18T07:44:53.156Z,11.50
2018-10-18T07:45:53.909Z,12.30
2018-10-18T07:46:53.725Z,12.40
2018-10-18T07:47:53.373Z,12.80
2018-10-18T07:48:53.205Z,14.70
2018-10-18T07:49:53.609Z,13.40
2018-10-18T07:50:53.585Z,13.70
2018-10-18T07:51:54.155Z,14.00
2018-10-18T07:52:54.420Z,12.80
2018-10-18T07:53:54.453Z,13.40
2018-10-18T07:54:54.657Z,13.50
2018-10-18T07:55:56.019Z,13.20
2018-10-18T07:56:54.488Z,13.10
2018-10-18T07:57:55.536Z,14.10
2018-10-18T07:58:56.263Z,13.90
2018-10-18T08:01:55.836Z,17.40
2018-10-18T08:02:55.797Z,14.40
2018-10-18T08:03:59.562Z,14.50
2018-10-18T08:04:56.093Z,14.60
2018-10-18T08:05:55.741Z,15.00
2018-10-18T08:06:56.894Z,14.60
2018-10-18T08:07:57.660Z,14.40
2018-10-18T08:08:56.264Z,14.30
2018-10-18T08:09:56.713Z,15.70
2018-10-18T08:10:56.911Z,15.70
2018-10-18T08:11:58.032Z,15.90
2018-10-18T08:12:58.067Z,16.60
2018-10-18T08:13:57.263Z,17.30
2018-10-18T08:14:58.510Z,16.60
2018-10-18T08:15:58.397Z,17.60
2018-10-18T08:16:57.667Z,16.80
2018-10-18T08:17:57.672Z,16.20
2018-10-18T08:18:57.843Z,17.00
2018-10-18T08:19:58.714Z,16.40
2018-10-18T08:20:58.234Z,16.10
2018-10-18T08:21:58.373Z,16.80
2018-10-18T08:22:58.466Z,17.30
2018-10-18T08:23:58.645Z,17.30
2018-10-18T08:24:58.861Z,18.20
2018-10-18T08:25:59.603Z,18.50
2018-10-18T08:26:59.114Z,19.20
2018-10-18T08:27:59.294Z,18.10
2018-10-18T08:28:59.584Z,18.30
2018-10-18T08:29:59.647Z,18.20
2018-10-18T08:31:00.139Z,18.30
2018-10-18T08:32:00.080Z,19.00
2018-10-18T08:33:00.182Z,20.00
2018-10-18T08:34:01.170Z,17.60
2018-10-18T08:35:00.542Z,17.60
2018-10-18T08:36:01.027Z,18.70
2018-10-18T08:37:00.938Z,18.40
2018-10-18T08:38:01.270Z,17.80
2018-10-18T08:39:02.667Z,18.60
2018-10-18T08:40:02.266Z,18.10
2018-10-18T08:41:01.636Z,18.20
2018-10-18T08:42:02.140Z,17.80
2018-10-18T08:43:02.977Z,18.50
2018-10-18T08:44:02.264Z,18.40
2018-10-18T08:45:02.138Z,18.00
2018-10-18T08:46:03.611Z,18.30
2018-10-18T08:47:02.600Z,19.00
2018-10-18T08:48:04.134Z,18.10
2018-10-18T08:49:03.775Z,18.50
2018-10-18T08:50:03.093Z,19.00
2018-10-18T08:52:03.836Z,18.80
2018-10-18T08:53:04.717Z,18.80
2018-10-18T08:54:07.064Z,18.90
2018-10-18T08:55:04.121Z,18.10
2018-10-18T08:56:04.172Z,18.80
2018-10-18T08:57:04.316Z,18.30
2018-10-18T08:58:04.509Z,18.00
2018-10-18T08:59:04.695Z,19.30
2018-10-18T09:00:05.678Z,20.20
2018-10-18T09:01:05.104Z,19.40
2018-10-18T09:02:05.235Z,19.70
2018-10-18T09:03:05.757Z,19.00
2018-10-18T09:04:05.616Z,20.10
2018-10-18T09:05:06.498Z,20.40
2018-10-18T09:06:05.943Z,20.50
2018-10-18T09:07:06.141Z,20.80
2018-10-18T09:08:06.532Z,19.50
2018-10-18T09:09:06.464Z,20.30
2018-10-18T09:10:06.652Z,20.60
2018-10-18T09:11:06.767Z,21.20
2018-10-18T09:12:06.976Z,20.40
2018-10-18T09:13:07.200Z,20.60
2018-10-18T09:14:07.327Z,20.80
2018-10-18T09:15:07.574Z,21.10
2018-10-18T09:16:07.798Z,21.20
2018-10-18T09:17:07.825Z,20.90
2018-10-18T09:18:08.044Z,20.60
2018-10-18T09:19:08.209Z,20.80
2018-10-18T09:20:08.371Z,20.20
2018-10-18T09:21:08.535Z,20.90
2018-10-18T09:22:08.711Z,21.60
2018-10-18T09:23:08.870Z,20.50
2018-10-18T09:24:09.027Z,20.10
2018-10-18T09:25:09.264Z,20.90
2018-10-18T09:26:09.315Z,20.10
2018-10-18T09:27:09.529Z,20.30
2018-10-18T09:28:09.662Z,19.70
2018-10-18T09:29:09.834Z,20.10
2018-10-18T09:30:10.074Z,20.60
2018-10-18T09:31:10.222Z,20.20
2018-10-18T09:32:10.314Z,21.10
2018-10-18T09:33:10.490Z,22.40
2018-10-18T09:34:10.679Z,22.90
2018-10-18T09:35:11.653Z,22.40
2018-10-18T09:36:11.011Z,21.70
2018-10-18T09:37:11.244Z,22.10
2018-10-18T09:38:11.338Z,23.20
2018-10-18T09:39:11.667Z,22.60
2018-10-18T09:40:11.696Z,23.00
2018-10-18T09:41:11.830Z,23.00
2018-10-18T09:42:12.103Z,23.00
2018-10-18T09:43:12.337Z,22.90
2018-10-18T09:44:12.438Z,21.70
2018-10-18T09:45:12.616Z,19.30
2018-10-18T09:46:12.837Z,18.90
2018-10-18T09:47:12.902Z,18.80
2018-10-18T09:48:13.066Z,20.10
2018-10-18T09:49:13.314Z,19.30
2018-10-18T09:50:13.558Z,19.90
2018-10-18T09:51:13.670Z,17.90
2018-10-18T09:52:13.727Z,18.00
2018-10-18T09:53:13.938Z,19.90
2018-10-18T09:54:14.139Z,19.30
2018-10-18T09:55:14.450Z,20.00
2018-10-18T09:56:14.419Z,19.80
2018-10-18T09:57:14.664Z,20.20
2018-10-18T09:58:14.845Z,20.60
2018-10-18T09:59:15.039Z,21.00
2018-10-18T10:00:15.132Z,20.30
2018-10-18T10:01:15.509Z,20.90
2018-10-18T10:02:15.516Z,20.80
2018-10-18T10:03:15.674Z,21.10
2018-10-18T10:04:15.992Z,20.50
2018-10-18T10:05:16.169Z,21.00
2018-10-18T10:06:16.204Z,21.10
2018-10-18T10:07:16.434Z,21.50
2018-10-18T10:08:16.490Z,21.70
2018-10-18T10:09:16.807Z,20.30
2018-10-18T10:10:16.942Z,21.50
2018-10-18T10:11:17.104Z,21.40
2018-10-18T10:12:17.263Z,22.10
2018-10-18T10:13:17.583Z,20.50
2018-10-18T10:14:17.642Z,21.10
2018-10-18T10:15:17.741Z,21.50
2018-10-18T10:16:18.016Z,20.50
2018-10-18T10:17:18.119Z,21.30
2018-10-18T10:18:18.531Z,21.30
2018-10-18T10:19:18.440Z,21.50
2018-10-18T10:20:18.667Z,21.00
2018-10-18T10:21:18.739Z,21.90
2018-10-18T10:22:19.042Z,21.10
2018-10-18T10:23:19.126Z,22.00
2018-10-18T10:24:19.206Z,21.10
2018-10-18T10:25:19.595Z,20.70
2018-10-18T10:26:20.309Z,21.10
2018-10-18T10:27:19.882Z,21.00
2018-10-18T10:28:20.113Z,22.40
2018-10-18T10:29:20.251Z,22.30
2018-10-18T10:30:20.512Z,22.60
2018-10-18T10:31:20.606Z,22.50
2018-10-18T10:32:20.759Z,23.10
2018-10-18T10:33:20.953Z,22.90
2018-10-18T10:34:21.078Z,22.50
2018-10-18T10:35:21.316Z,22.30
2018-10-18T10:36:21.499Z,22.70
2018-10-18T10:37:21.687Z,23.10
2018-10-18T10:38:21.931Z,22.40
2018-10-18T10:39:22.196Z,22.30
2018-10-18T10:40:22.323Z,22.00
2018-10-18T10:41:22.475Z,21.70
2018-10-18T10:42:22.756Z,21.20
2018-10-18T10:43:22.925Z,22.30
2018-10-18T10:44:23.028Z,22.60
2018-10-18T10:45:23.340Z,22.60
2018-10-18T10:46:23.366Z,23.80
2018-10-18T10:47:23.770Z,23.20
2018-10-18T10:48:23.679Z,22.50
2018-10-18T10:49:23.896Z,24.00
2018-10-18T10:50:24.033Z,23.80
2018-10-18T10:51:24.262Z,23.00
2018-10-18T10:52:24.506Z,23.70
2018-10-18T10:53:24.633Z,24.00
2018-10-18T10:54:24.856Z,23.30
2018-10-18T10:55:25.101Z,24.20
2018-10-18T10:57:25.368Z,24.10
2018-10-18T10:58:25.688Z,24.50
2018-10-18T10:59:25.686Z,23.50
2018-10-18T11:00:25.892Z,23.70
2018-10-18T11:01:26.219Z,24.50
2018-10-18T11:02:26.395Z,23.50
2018-10-18T11:03:26.484Z,25.80
2018-10-18T11:04:26.751Z,24.50
2018-10-18T11:05:28.622Z,26.70
2018-10-18T11:06:28.205Z,25.90
2018-10-18T11:07:27.592Z,25.40
2018-10-18T11:08:27.499Z,24.80
2018-10-18T11:09:27.691Z,24.60
2018-10-18T11:10:28.306Z,26.00
2018-10-18T11:11:28.117Z,25.20
2018-10-18T11:12:28.804Z,24.90
2018-10-18T11:13:28.298Z,24.10
2018-10-18T11:14:28.624Z,25.40
2018-10-18T11:15:30.663Z,26.10
2018-10-18T11:16:28.887Z,25.50
2018-10-18T11:17:29.077Z,25.00
2018-10-18T11:18:29.255Z,26.10
2018-10-18T11:19:29.786Z,26.70
2018-10-18T11:20:29.520Z,25.40
2018-10-18T11:21:30.222Z,25.90
2018-10-18T11:22:30.055Z,24.90
2018-10-18T11:24:31.352Z,27.10
2018-10-18T11:25:30.433Z,25.90
2018-10-18T11:26:32.165Z,25.10
2018-10-18T11:27:31.879Z,26.00
2018-10-18T11:28:30.901Z,24.80
2018-10-18T11:29:31.228Z,25.70
2018-10-18T11:30:32.928Z,26.50
2018-10-18T11:35:52.269Z,27.20
2018-10-18T11:36:51.641Z,27.40
2018-10-18T11:37:51.827Z,28.80
2018-10-18T11:38:51.890Z,28.40
2018-10-18T11:39:52.079Z,27.80
2018-10-18T11:40:52.341Z,27.20
2018-10-18T11:41:52.588Z,28.70
2018-10-18T11:42:52.620Z,29.80
2018-10-18T11:43:52.824Z,27.60
2018-10-18T11:44:53.016Z,29.10
2018-10-18T11:45:53.149Z,28.70
2018-10-18T11:46:53.411Z,28.60
2018-10-18T11:47:53.646Z,28.40
2018-10-18T11:48:53.812Z,27.10
2018-10-18T11:49:53.973Z,27.70
2018-10-18T11:50:54.052Z,27.60
2018-10-18T11:51:54.346Z,29.20
2018-10-18T11:52:54.343Z,28.80
2018-10-18T11:53:54.749Z,27.80
2018-10-18T11:54:54.917Z,27.90
2018-10-18T11:55:55.807Z,27.60
2018-10-18T11:56:55.142Z,28.50
2018-10-18T11:57:55.280Z,27.70
2018-10-18T11:58:55.404Z,27.30
2018-10-18T11:59:55.617Z,29.70
2018-10-18T12:00:55.707Z,29.50
2018-10-18T12:01:55.907Z,27.70
2018-10-18T12:02:56.117Z,28.50
2018-10-18T12:03:56.277Z,26.40
2018-10-18T12:04:56.485Z,27.30
2018-10-18T12:05:56.559Z,27.30
2018-10-18T12:06:56.922Z,27.90
2018-10-18T12:07:57.019Z,27.20
2018-10-18T12:08:57.196Z,26.60
2018-10-18T12:09:57.279Z,27.30
2018-10-18T12:10:57.464Z,27.00
2018-10-18T12:11:57.678Z,28.10
2018-10-18T12:12:57.730Z,27.40
2018-10-18T12:13:58.001Z,27.80
2018-10-18T12:14:58.161Z,26.70
2018-10-18T12:15:58.350Z,27.40
2018-10-18T12:16:58.536Z,26.00
2018-10-18T12:17:58.634Z,26.80
2018-10-18T12:18:58.782Z,26.20
2018-10-18T12:19:59.290Z,26.10
2018-10-18T12:20:59.553Z,25.60
2018-10-18T12:23:01.006Z,25.10
2018-10-18T12:24:00.063Z,24.50
2018-10-18T12:25:00.680Z,25.40
2018-10-18T12:26:01.213Z,25.30
2018-10-18T12:27:00.557Z,25.00
2018-10-18T12:28:00.566Z,26.00
2018-10-18T12:29:01.241Z,25.10
2018-10-18T12:30:01.629Z,25.00
2018-10-18T12:31:01.417Z,25.30
2018-10-18T12:32:01.408Z,25.00
2018-10-18T12:34:01.563Z,23.50
2018-10-18T12:35:02.337Z,23.50
2018-10-18T12:36:01.882Z,25.80
2018-10-18T12:37:02.775Z,25.20
2018-10-18T12:38:02.404Z,23.80
2018-10-18T12:40:02.443Z,24.10
2018-10-18T12:41:02.655Z,24.20
2018-10-18T12:42:02.969Z,25.90
2018-10-18T12:43:02.955Z,25.70
2018-10-18T12:44:03.204Z,24.80
2018-10-18T12:45:03.200Z,23.40
2018-10-18T12:46:03.631Z,23.40
2018-10-18T12:47:04.171Z,22.40
2018-10-18T12:48:03.755Z,22.00
2018-10-18T12:49:04.005Z,22.10
2018-10-18T12:50:04.901Z,22.40
2018-10-18T12:51:04.388Z,21.40
2018-10-18T12:52:04.354Z,20.60
2018-10-18T12:53:04.507Z,23.10
2018-10-18T12:54:04.655Z,21.30
2018-10-18T12:55:05.686Z,20.40
2018-10-18T12:56:05.092Z,21.70
2018-10-18T12:57:05.070Z,19.80
2018-10-18T12:58:05.318Z,20.80
2018-10-18T12:59:05.512Z,19.90
2018-10-18T13:00:05.748Z,21.50
2018-10-18T13:01:05.880Z,19.90
2018-10-18T13:02:06.047Z,19.30
2018-10-18T13:03:06.142Z,19.30
2018-10-18T13:04:07.171Z,19.60
2018-10-18T13:05:06.601Z,19.00
2018-10-18T13:06:06.870Z,19.20
2018-10-18T13:07:06.902Z,20.00
2018-10-18T13:08:07.183Z,19.10
2018-10-18T13:09:07.393Z,19.20
2018-10-18T13:10:07.441Z,19.80
2018-10-18T13:11:07.594Z,19.50
2018-10-18T13:12:07.783Z,19.50
2018-10-18T13:13:07.972Z,20.40
2018-10-18T13:14:08.058Z,20.00
2018-10-18T13:15:08.223Z,19.60
2018-10-18T13:16:08.451Z,19.80
2018-10-18T13:17:08.700Z,19.20
2018-10-18T13:18:08.931Z,19.50
2018-10-18T13:19:09.003Z,19.50
2018-10-18T13:20:09.238Z,19.10
2018-10-18T13:21:09.403Z,19.30
2018-10-18T13:22:09.464Z,18.30
2018-10-18T13:23:09.694Z,18.40
2018-10-18T13:24:09.880Z,17.60
2018-10-18T13:25:10.060Z,17.80
2018-10-18T13:26:10.592Z,17.70
2018-10-18T13:27:10.422Z,17.70
2018-10-18T13:28:10.622Z,18.00
2018-10-18T13:29:10.883Z,17.30
2018-10-18T13:30:10.944Z,17.70
2018-10-18T13:31:11.064Z,17.30
2018-10-18T13:32:11.245Z,17.60
2018-10-18T13:33:11.588Z,19.30
2018-10-18T13:34:11.668Z,18.10
2018-10-18T13:35:11.825Z,18.70
2018-10-18T13:36:12.094Z,18.90
2018-10-18T13:37:12.228Z,18.50
2018-10-18T13:38:12.545Z,19.40
2018-10-18T13:39:12.635Z,20.50
2018-10-18T13:40:12.729Z,20.80
2018-10-18T13:41:12.867Z,20.30
2018-10-18T13:42:13.048Z,19.40
2018-10-18T13:43:13.272Z,18.50
2018-10-18T13:44:13.570Z,18.60
2018-10-18T13:45:13.557Z,18.50
2018-10-18T13:46:13.738Z,19.00
2018-10-18T13:47:13.844Z,19.10
2018-10-18T13:48:14.176Z,19.00
2018-10-18T13:49:14.351Z,18.00
2018-10-18T13:50:14.513Z,19.80
2018-10-18T13:51:14.677Z,20.20
2018-10-18T13:52:14.783Z,17.70
2018-10-18T13:53:14.984Z,17.40
2018-10-18T13:54:15.268Z,17.40
2018-10-18T13:55:15.392Z,20.20
2018-10-18T13:56:15.535Z,19.90
2018-10-18T13:57:15.807Z,19.60
2018-10-18T13:58:15.881Z,19.30
2018-10-18T13:59:16.249Z,18.70
2018-10-18T14:00:16.272Z,19.10
2018-10-18T14:01:16.356Z,19.80
2018-10-18T14:02:16.593Z,19.50
2018-10-18T14:03:17.005Z,19.30
2018-10-18T14:04:16.904Z,18.60
2018-10-18T14:05:17.113Z,17.80
2018-10-18T14:06:17.303Z,18.80
2018-10-18T14:07:17.524Z,18.60
2018-10-18T14:08:17.801Z,19.60
2018-10-18T14:09:17.755Z,18.60
2018-10-18T14:10:17.978Z,18.90
2018-10-18T14:11:18.236Z,19.30
2018-10-18T14:12:18.402Z,17.70
2018-10-18T14:13:18.507Z,18.50
2018-10-18T14:14:18.843Z,18.90
2018-10-18T14:15:18.849Z,18.50
2018-10-18T14:16:19.024Z,19.10
2018-10-18T14:17:19.418Z,18.90
2018-10-18T14:18:19.375Z,18.20
2018-10-18T14:19:19.585Z,18.70
2018-10-18T14:20:19.779Z,18.90
2018-10-18T14:21:19.934Z,18.40
2018-10-18T14:22:20.120Z,18.20
2018-10-18T14:23:20.642Z,18.00
2018-10-18T14:24:20.454Z,18.30
2018-10-18T14:25:20.626Z,17.60
2018-10-18T14:26:20.950Z,18.20
2018-10-18T14:27:20.966Z,18.60
2018-10-18T14:28:21.120Z,18.00
2018-10-18T14:29:21.383Z,18.80
2018-10-18T14:30:21.598Z,18.50
2018-10-18T14:31:21.584Z,19.00
2018-10-18T14:32:21.680Z,18.50
2018-10-18T14:33:22.002Z,19.00
2018-10-18T14:34:22.148Z,18.40
2018-10-18T14:35:22.325Z,17.70
2018-10-18T14:36:22.505Z,18.30
2018-10-18T14:37:22.545Z,18.50
2018-10-18T14:38:22.982Z,18.10
2018-10-18T14:39:22.968Z,17.60
2018-10-18T14:40:23.107Z,17.00
2018-10-18T14:41:23.869Z,17.60
2018-10-18T14:42:23.441Z,18.40
2018-10-18T14:43:23.888Z,19.30
2018-10-18T14:44:23.966Z,19.60
2018-10-18T14:45:24.051Z,18.70
2018-10-18T14:46:24.274Z,18.80
2018-10-18T14:47:24.678Z,18.10
2018-10-18T14:48:24.655Z,18.20
2018-10-18T14:49:24.790Z,19.10
2018-10-18T14:50:25.144Z,18.40
2018-10-18T14:51:25.082Z,18.20
2018-10-18T14:52:25.362Z,18.20
2018-10-18T14:53:27.755Z,18.80
2018-10-18T14:54:25.676Z,18.00
2018-10-18T14:55:25.877Z,17.30
2018-10-18T14:56:25.999Z,17.60
2018-10-18T14:57:26.160Z,18.30
2018-10-18T14:58:26.306Z,17.70
2018-10-18T14:59:27.296Z,17.70
2018-10-18T15:00:26.575Z,18.70
2018-10-18T15:01:26.854Z,18.00
2018-10-18T15:02:27.005Z,18.30
2018-10-18T15:03:27.201Z,18.40
2018-10-18T15:04:27.341Z,17.50
2018-10-18T15:05:27.592Z,18.80
2018-10-18T15:06:27.722Z,18.20
2018-10-18T15:07:27.878Z,18.60
2018-10-18T15:08:28.097Z,17.40
2018-10-18T15:09:28.398Z,17.90
2018-10-18T15:10:28.398Z,17.80
2018-10-18T15:11:28.716Z,17.60
2018-10-18T15:12:28.854Z,17.50
2018-10-18T15:13:29.016Z,17.60
2018-10-18T15:14:29.103Z,17.30
2018-10-18T15:15:29.419Z,17.80
2018-10-18T15:16:29.326Z,17.60
2018-10-18T15:17:29.736Z,17.30
2018-10-18T15:18:29.765Z,16.60
2018-10-18T15:19:29.923Z,16.90
2018-10-18T15:20:30.062Z,17.00
2018-10-18T15:21:30.353Z,17.30
2018-10-18T15:22:30.479Z,16.60
2018-10-18T15:23:30.649Z,16.30
2018-10-18T15:24:30.875Z,16.00
2018-10-18T15:25:31.128Z,15.60
2018-10-18T15:26:31.408Z,15.40
2018-10-18T15:27:31.481Z,15.40
2018-10-18T15:28:32.362Z,15.10
2018-10-18T15:29:31.818Z,14.90
2018-10-18T15:30:31.930Z,14.70
2018-10-18T15:31:32.188Z,14.70
2018-10-18T15:32:32.367Z,15.50
2018-10-18T15:33:32.525Z,14.60
2018-10-18T15:34:32.635Z,14.20
2018-10-18T15:35:33.276Z,13.90
2018-10-18T15:36:32.893Z,13.70
2018-10-18T15:37:33.116Z,14.30
2018-10-18T15:38:33.257Z,13.70
2018-10-18T15:39:33.517Z,13.20
2018-10-18T15:40:33.643Z,12.50
2018-10-18T15:41:33.793Z,12.60
2018-10-18T15:42:34.063Z,12.30
2018-10-18T15:43:34.149Z,12.30
2018-10-18T15:44:34.877Z,11.80
2018-10-18T15:45:34.541Z,11.70
2018-10-18T15:46:34.713Z,12.00
2018-10-18T15:47:35.519Z,11.20
2018-10-18T15:48:35.050Z,11.10
2018-10-18T15:49:35.729Z,10.90
2018-10-18T15:50:35.519Z,10.90
2018-10-18T15:51:35.596Z,10.60
2018-10-18T15:52:35.877Z,10.40
2018-10-18T15:53:36.795Z,10.80
2018-10-18T15:54:36.361Z,10.00
2018-10-18T15:55:37.666Z,10.90
2018-10-18T15:56:37.365Z,9.80
2018-10-18T15:57:36.787Z,10.20
2018-10-18T15:58:38.982Z,10.20
2018-10-18T15:59:36.959Z,10.00
2018-10-18T16:00:37.080Z,9.80
2018-10-18T16:01:37.398Z,9.80
2018-10-18T16:02:37.509Z,9.70
2018-10-18T16:03:37.885Z,10.80
2018-10-18T16:04:38.028Z,10.60
2018-10-18T16:05:38.071Z,9.90
2018-10-18T16:06:38.210Z,9.50
2018-10-18T16:07:38.457Z,9.30
2018-10-18T16:08:38.799Z,9.70
2018-10-18T16:09:42.350Z,9.30
2018-10-18T16:10:39.049Z,9.80
2018-10-18T16:11:39.250Z,9.40
2018-10-18T16:12:39.338Z,9.60